sensor_id;sensor_type;location;lat;lon;timestamp;P1;durP1;ratioP1;P2;durP2;ratioP2
3002;SDS011;1511;51.326;12.344;2023-10-09T00:02:45;2.00;;;1.70;;
3002;SDS011;1511;51.326;12.344;2023-10-09T00:05:13;2.50;;;2.10;;
3002;SDS011;1511;51.326;12.344;2023-10-09T00:07:51;2.57;;;2.37;;
3002;SDS011;1511;51.326;12.344;2023-10-09T00:10:21;6.10;;;2.57;;
3002;SDS011;1511;51.326;12.344;2023-10-09T00:12:47;2.23;;;1.80;;
3002;SDS011;1511;51.326;12.344;2023-10-09T00:15:16;2.13;;;1.93;;
3002;SDS011;1511;51.326;12.344;2023-10-09T00:17:52;3.03;;;2.60;;
3002;SDS011;1511;51.326;12.344;2023-10-09T00:20:21;2.83;;;2.63;;
3002;SDS011;1511;51.326;12.344;2023-10-09T00:23:03;2.43;;;2.23;;
3002;SDS011;1511;51.326;12.344;2023-10-09T00:25:37;2.37;;;2.10;;
3002;SDS011;1511;51.326;12.344;2023-10-09T00:28:10;2.60;;;2.47;;
3002;SDS011;1511;51.326;12.344;2023-10-09T00:30:40;3.80;;;2.67;;
3002;SDS011;1511;51.326;12.344;2023-10-09T00:33:09;4.97;;;2.43;;
3002;SDS011;1511;51.326;12.344;2023-10-09T00:35:38;1.87;;;1.77;;
3002;SDS011;1511;51.326;12.344;2023-10-09T00:38:19;2.30;;;2.20;;
3002;SDS011;1511;51.326;12.344;2023-10-09T00:40:47;3.10;;;2.27;;
3002;SDS011;1511;51.326;12.344;2023-10-09T00:43:32;3.17;;;2.87;;
3002;SDS011;1511;51.326;12.344;2023-10-09T00:46:04;2.67;;;2.47;;
3002;SDS011;1511;51.326;12.344;2023-10-09T00:48:42;3.83;;;2.70;;
3002;SDS011;1511;51.326;12.344;2023-10-09T00:51:12;2.83;;;2.63;;
3002;SDS011;1511;51.326;12.344;2023-10-09T00:53:53;3.00;;;2.80;;
3002;SDS011;1511;51.326;12.344;2023-10-09T00:56:24;3.37;;;2.90;;
3002;SDS011;1511;51.326;12.344;2023-10-09T00:58:50;5.13;;;2.83;;
3002;SDS011;1511;51.326;12.344;2023-10-09T01:01:34;3.23;;;2.50;;
3002;SDS011;1511;51.326;12.344;2023-10-09T01:04:04;2.43;;;2.33;;
3002;SDS011;1511;51.326;12.344;2023-10-09T01:06:34;3.53;;;3.00;;
3002;SDS011;1511;51.326;12.344;2023-10-09T01:09:08;3.67;;;3.20;;
3002;SDS011;1511;51.326;12.344;2023-10-09T01:11:41;3.93;;;3.00;;
3002;SDS011;1511;51.326;12.344;2023-10-09T01:14:15;3.10;;;2.80;;
3002;SDS011;1511;51.326;12.344;2023-10-09T01:16:41;5.07;;;3.30;;
3002;SDS011;1511;51.326;12.344;2023-10-09T01:19:08;2.63;;;2.43;;
3002;SDS011;1511;51.326;12.344;2023-10-09T01:21:48;3.17;;;2.87;;
3002;SDS011;1511;51.326;12.344;2023-10-09T01:24:23;3.40;;;3.10;;
3002;SDS011;1511;51.326;12.344;2023-10-09T01:26:51;2.70;;;2.40;;
3002;SDS011;1511;51.326;12.344;2023-10-09T01:29:22;2.67;;;2.47;;
3002;SDS011;1511;51.326;12.344;2023-10-09T01:31:53;5.67;;;2.97;;
3002;SDS011;1511;51.326;12.344;2023-10-09T01:34:30;3.33;;;3.10;;
3002;SDS011;1511;51.326;12.344;2023-10-09T01:37:03;3.50;;;2.73;;
3002;SDS011;1511;51.326;12.344;2023-10-09T01:39:54;2.47;;;2.30;;
3002;SDS011;1511;51.326;12.344;2023-10-09T01:42:25;1.80;;;1.70;;
3002;SDS011;1511;51.326;12.344;2023-10-09T01:45:10;3.53;;;3.20;;
3002;SDS011;1511;51.326;12.344;2023-10-09T01:47:45;5.23;;;2.93;;
3002;SDS011;1511;51.326;12.344;2023-10-09T01:50:19;5.50;;;3.00;;
3002;SDS011;1511;51.326;12.344;2023-10-09T01:52:47;3.47;;;3.20;;
3002;SDS011;1511;51.326;12.344;2023-10-09T01:55:12;2.97;;;2.60;;
3002;SDS011;1511;51.326;12.344;2023-10-09T01:57:52;2.63;;;2.43;;
3002;SDS011;1511;51.326;12.344;2023-10-09T02:00:18;2.67;;;2.47;;
3002;SDS011;1511;51.326;12.344;2023-10-09T02:02:49;3.67;;;2.90;;
3002;SDS011;1511;51.326;12.344;2023-10-09T02:05:15;3.00;;;2.80;;
3002;SDS011;1511;51.326;12.344;2023-10-09T02:07:43;3.40;;;3.10;;
3002;SDS011;1511;51.326;12.344;2023-10-09T02:10:12;4.93;;;2.40;;
3002;SDS011;1511;51.326;12.344;2023-10-09T02:12:55;3.43;;;3.20;;
3002;SDS011;1511;51.326;12.344;2023-10-09T02:15:25;3.77;;;2.73;;
3002;SDS011;1511;51.326;12.344;2023-10-09T02:18:11;2.93;;;2.00;;
3002;SDS011;1511;51.326;12.344;2023-10-09T02:20:51;3.67;;;2.80;;
3002;SDS011;1511;51.326;12.344;2023-10-09T02:23:39;4.30;;;2.13;;
3002;SDS011;1511;51.326;12.344;2023-10-09T02:26:15;5.63;;;3.43;;
3002;SDS011;1511;51.326;12.344;2023-10-09T02:28:58;3.10;;;2.90;;
3002;SDS011;1511;51.326;12.344;2023-10-09T02:31:48;6.07;;;2.77;;
3002;SDS011;1511;51.326;12.344;2023-10-09T02:34:17;3.33;;;2.80;;
3002;SDS011;1511;51.326;12.344;2023-10-09T02:36:52;3.43;;;3.13;;
3002;SDS011;1511;51.326;12.344;2023-10-09T02:39:30;2.60;;;2.40;;
3002;SDS011;1511;51.326;12.344;2023-10-09T02:42:01;4.53;;;3.63;;
3002;SDS011;1511;51.326;12.344;2023-10-09T02:44:49;2.67;;;2.47;;
3002;SDS011;1511;51.326;12.344;2023-10-09T02:47:17;2.60;;;2.40;;
3002;SDS011;1511;51.326;12.344;2023-10-09T02:49:50;2.23;;;2.13;;
3002;SDS011;1511;51.326;12.344;2023-10-09T02:52:19;3.10;;;2.80;;
3002;SDS011;1511;51.326;12.344;2023-10-09T02:54:51;2.97;;;2.77;;
3002;SDS011;1511;51.326;12.344;2023-10-09T02:57:25;3.50;;;3.20;;
3002;SDS011;1511;51.326;12.344;2023-10-09T03:00:02;3.30;;;3.10;;
3002;SDS011;1511;51.326;12.344;2023-10-09T03:02:34;3.27;;;3.00;;
3002;SDS011;1511;51.326;12.344;2023-10-09T03:05:05;2.90;;;2.70;;
3002;SDS011;1511;51.326;12.344;2023-10-09T03:07:37;3.50;;;2.73;;
3002;SDS011;1511;51.326;12.344;2023-10-09T03:10:07;2.90;;;2.70;;
3002;SDS011;1511;51.326;12.344;2023-10-09T03:12:37;3.37;;;2.70;;
3002;SDS011;1511;51.326;12.344;2023-10-09T03:15:07;3.63;;;2.80;;
3002;SDS011;1511;51.326;12.344;2023-10-09T03:17:36;4.13;;;3.20;;
3002;SDS011;1511;51.326;12.344;2023-10-09T03:20:07;2.83;;;2.70;;
3002;SDS011;1511;51.326;12.344;2023-10-09T03:22:44;3.87;;;2.70;;
3002;SDS011;1511;51.326;12.344;2023-10-09T03:25:15;3.17;;;2.13;;
3002;SDS011;1511;51.326;12.344;2023-10-09T03:27:43;2.80;;;2.60;;
3002;SDS011;1511;51.326;12.344;2023-10-09T03:30:13;3.43;;;2.43;;
3002;SDS011;1511;51.326;12.344;2023-10-09T03:32:42;2.60;;;2.40;;
3002;SDS011;1511;51.326;12.344;2023-10-09T03:35:16;3.70;;;3.40;;
3002;SDS011;1511;51.326;12.344;2023-10-09T03:37:53;2.90;;;2.67;;
3002;SDS011;1511;51.326;12.344;2023-10-09T03:40:37;2.20;;;2.10;;
3002;SDS011;1511;51.326;12.344;2023-10-09T03:43:13;2.80;;;2.60;;
3002;SDS011;1511;51.326;12.344;2023-10-09T03:45:39;3.00;;;2.67;;
3002;SDS011;1511;51.326;12.344;2023-10-09T03:48:17;2.97;;;2.77;;
3002;SDS011;1511;51.326;12.344;2023-10-09T03:50:51;3.40;;;3.20;;
3002;SDS011;1511;51.326;12.344;2023-10-09T03:53:37;3.60;;;3.40;;
3002;SDS011;1511;51.326;12.344;2023-10-09T03:56:06;5.53;;;4.43;;
3002;SDS011;1511;51.326;12.344;2023-10-09T03:58:40;2.70;;;2.50;;
3002;SDS011;1511;51.326;12.344;2023-10-09T04:01:10;3.37;;;2.93;;
3002;SDS011;1511;51.326;12.344;2023-10-09T04:04:02;3.53;;;2.50;;
3002;SDS011;1511;51.326;12.344;2023-10-09T04:06:31;2.87;;;2.77;;
3002;SDS011;1511;51.326;12.344;2023-10-09T04:08:59;3.53;;;3.23;;
3002;SDS011;1511;51.326;12.344;2023-10-09T04:11:47;2.30;;;2.20;;
3002;SDS011;1511;51.326;12.344;2023-10-09T04:14:22;2.70;;;2.53;;
3002;SDS011;1511;51.326;12.344;2023-10-09T04:17:00;2.47;;;2.27;;
3002;SDS011;1511;51.326;12.344;2023-10-09T04:19:52;3.70;;;3.37;;
3002;SDS011;1511;51.326;12.344;2023-10-09T04:22:39;5.80;;;3.03;;
3002;SDS011;1511;51.326;12.344;2023-10-09T04:25:19;3.20;;;2.60;;
3002;SDS011;1511;51.326;12.344;2023-10-09T04:27:54;3.40;;;3.10;;
3002;SDS011;1511;51.326;12.344;2023-10-09T04:30:37;5.47;;;3.53;;
3002;SDS011;1511;51.326;12.344;2023-10-09T04:33:20;2.83;;;2.63;;
3002;SDS011;1511;51.326;12.344;2023-10-09T04:36:06;3.50;;;3.30;;
3002;SDS011;1511;51.326;12.344;2023-10-09T04:39:03;3.33;;;3.00;;
3002;SDS011;1511;51.326;12.344;2023-10-09T04:41:29;3.33;;;2.90;;
3002;SDS011;1511;51.326;12.344;2023-10-09T04:44:08;4.67;;;3.33;;
3002;SDS011;1511;51.326;12.344;2023-10-09T04:46:47;3.83;;;3.40;;
3002;SDS011;1511;51.326;12.344;2023-10-09T04:49:43;5.07;;;4.17;;
3002;SDS011;1511;51.326;12.344;2023-10-09T04:52:29;9.60;;;3.93;;
3002;SDS011;1511;51.326;12.344;2023-10-09T04:54:55;3.97;;;3.67;;
3002;SDS011;1511;51.326;12.344;2023-10-09T04:57:47;5.30;;;4.80;;
3002;SDS011;1511;51.326;12.344;2023-10-09T05:00:31;5.03;;;3.83;;
3002;SDS011;1511;51.326;12.344;2023-10-09T05:02:58;4.60;;;4.20;;
3002;SDS011;1511;51.326;12.344;2023-10-09T05:05:37;4.07;;;3.77;;
3002;SDS011;1511;51.326;12.344;2023-10-09T05:08:17;3.83;;;3.50;;
3002;SDS011;1511;51.326;12.344;2023-10-09T05:10:46;4.27;;;3.87;;
3002;SDS011;1511;51.326;12.344;2023-10-09T05:13:22;4.07;;;3.73;;
3002;SDS011;1511;51.326;12.344;2023-10-09T05:16:07;5.23;;;4.73;;
3002;SDS011;1511;51.326;12.344;2023-10-09T05:18:44;7.33;;;4.40;;
3002;SDS011;1511;51.326;12.344;2023-10-09T05:21:21;5.63;;;3.90;;
3002;SDS011;1511;51.326;12.344;2023-10-09T05:24:13;4.17;;;3.80;;
3002;SDS011;1511;51.326;12.344;2023-10-09T05:29:12;6.40;;;4.67;;
3002;SDS011;1511;51.326;12.344;2023-10-09T05:31:45;4.30;;;3.90;;
3002;SDS011;1511;51.326;12.344;2023-10-09T05:34:44;6.03;;;4.60;;
3002;SDS011;1511;51.326;12.344;2023-10-09T05:37:29;6.17;;;4.03;;
3002;SDS011;1511;51.326;12.344;2023-10-09T05:40:08;4.00;;;3.70;;
3002;SDS011;1511;51.326;12.344;2023-10-09T05:42:40;4.60;;;3.43;;
3002;SDS011;1511;51.326;12.344;2023-10-09T05:45:09;5.70;;;4.13;;
3002;SDS011;1511;51.326;12.344;2023-10-09T05:47:42;3.90;;;3.50;;
3002;SDS011;1511;51.326;12.344;2023-10-09T05:50:22;8.23;;;3.77;;
3002;SDS011;1511;51.326;12.344;2023-10-09T05:52:49;10.00;;;5.63;;
3002;SDS011;1511;51.326;12.344;2023-10-09T05:55:20;6.90;;;4.13;;
3002;SDS011;1511;51.326;12.344;2023-10-09T05:58:09;5.23;;;3.50;;
3002;SDS011;1511;51.326;12.344;2023-10-09T06:00:53;4.43;;;3.83;;
3002;SDS011;1511;51.326;12.344;2023-10-09T06:03:30;5.43;;;3.50;;
3002;SDS011;1511;51.326;12.344;2023-10-09T06:06:19;8.47;;;3.80;;
3002;SDS011;1511;51.326;12.344;2023-10-09T06:11:43;6.70;;;4.30;;
3002;SDS011;1511;51.326;12.344;2023-10-09T06:14:17;5.33;;;4.70;;
3002;SDS011;1511;51.326;12.344;2023-10-09T06:16:53;5.70;;;4.03;;
3002;SDS011;1511;51.326;12.344;2023-10-09T06:19:25;6.57;;;5.03;;
3002;SDS011;1511;51.326;12.344;2023-10-09T06:21:56;5.20;;;4.70;;
3002;SDS011;1511;51.326;12.344;2023-10-09T06:24:45;8.13;;;5.07;;
3002;SDS011;1511;51.326;12.344;2023-10-09T06:27:20;6.70;;;4.50;;
3002;SDS011;1511;51.326;12.344;2023-10-09T06:29:55;10.10;;;5.10;;
3002;SDS011;1511;51.326;12.344;2023-10-09T06:32:43;4.40;;;3.53;;
3002;SDS011;1511;51.326;12.344;2023-10-09T06:35:16;7.03;;;4.50;;
3002;SDS011;1511;51.326;12.344;2023-10-09T06:37:50;7.90;;;5.30;;
3002;SDS011;1511;51.326;12.344;2023-10-09T06:40:31;6.40;;;5.33;;
3002;SDS011;1511;51.326;12.344;2023-10-09T06:43:24;6.43;;;5.60;;
3002;SDS011;1511;51.326;12.344;2023-10-09T06:45:53;8.47;;;4.87;;
3002;SDS011;1511;51.326;12.344;2023-10-09T06:48:40;6.73;;;5.30;;
3002;SDS011;1511;51.326;12.344;2023-10-09T06:51:10;6.80;;;5.20;;
3002;SDS011;1511;51.326;12.344;2023-10-09T06:54:03;8.17;;;5.60;;
3002;SDS011;1511;51.326;12.344;2023-10-09T06:56:42;9.30;;;5.63;;
3002;SDS011;1511;51.326;12.344;2023-10-09T06:59:17;7.77;;;5.80;;
3002;SDS011;1511;51.326;12.344;2023-10-09T07:01:50;9.23;;;5.00;;
3002;SDS011;1511;51.326;12.344;2023-10-09T07:04:38;8.10;;;4.47;;
3002;SDS011;1511;51.326;12.344;2023-10-09T07:07:08;7.17;;;5.13;;
3002;SDS011;1511;51.326;12.344;2023-10-09T07:09:41;6.33;;;4.90;;
3002;SDS011;1511;51.326;12.344;2023-10-09T07:12:08;8.07;;;4.90;;
3002;SDS011;1511;51.326;12.344;2023-10-09T07:14:45;4.63;;;4.33;;
3002;SDS011;1511;51.326;12.344;2023-10-09T07:17:14;9.60;;;4.20;;
3002;SDS011;1511;51.326;12.344;2023-10-09T07:20:14;6.80;;;5.00;;
3002;SDS011;1511;51.326;12.344;2023-10-09T07:22:59;7.30;;;5.37;;
3002;SDS011;1511;51.326;12.344;2023-10-09T07:25:38;7.10;;;4.60;;
3002;SDS011;1511;51.326;12.344;2023-10-09T07:28:12;7.60;;;5.60;;
3002;SDS011;1511;51.326;12.344;2023-10-09T07:30:46;4.73;;;4.33;;
3002;SDS011;1511;51.326;12.344;2023-10-09T07:33:12;9.27;;;4.57;;
3002;SDS011;1511;51.326;12.344;2023-10-09T07:38:09;8.57;;;6.47;;
3002;SDS011;1511;51.326;12.344;2023-10-09T07:40:44;11.50;;;6.20;;
3002;SDS011;1511;51.326;12.344;2023-10-09T07:43:34;9.43;;;5.67;;
3002;SDS011;1511;51.326;12.344;2023-10-09T07:46:10;7.23;;;5.23;;
3002;SDS011;1511;51.326;12.344;2023-10-09T07:48:55;11.87;;;6.70;;
3002;SDS011;1511;51.326;12.344;2023-10-09T07:51:34;5.93;;;4.67;;
3002;SDS011;1511;51.326;12.344;2023-10-09T07:54:02;12.10;;;5.40;;
3002;SDS011;1511;51.326;12.344;2023-10-09T07:56:42;6.40;;;5.57;;
3002;SDS011;1511;51.326;12.344;2023-10-09T07:59:14;7.60;;;6.90;;
3002;SDS011;1511;51.326;12.344;2023-10-09T08:01:49;10.53;;;6.00;;
3002;SDS011;1511;51.326;12.344;2023-10-09T08:04:27;10.60;;;7.13;;
3002;SDS011;1511;51.326;12.344;2023-10-09T08:09:33;7.03;;;6.40;;
3002;SDS011;1511;51.326;12.344;2023-10-09T08:12:12;11.43;;;7.73;;
3002;SDS011;1511;51.326;12.344;2023-10-09T08:15:02;12.53;;;7.63;;
3002;SDS011;1511;51.326;12.344;2023-10-09T08:17:55;9.80;;;7.07;;
3002;SDS011;1511;51.326;12.344;2023-10-09T08:20:34;7.23;;;6.53;;
3002;SDS011;1511;51.326;12.344;2023-10-09T08:23:21;10.67;;;7.83;;
3002;SDS011;1511;51.326;12.344;2023-10-09T08:26:15;14.90;;;7.97;;
3002;SDS011;1511;51.326;12.344;2023-10-09T08:28:56;10.20;;;6.60;;
3002;SDS011;1511;51.326;12.344;2023-10-09T08:31:40;10.13;;;7.87;;
3002;SDS011;1511;51.326;12.344;2023-10-09T08:34:21;7.57;;;6.40;;
3002;SDS011;1511;51.326;12.344;2023-10-09T08:36:53;10.20;;;8.00;;
3002;SDS011;1511;51.326;12.344;2023-10-09T08:39:25;9.33;;;6.90;;
3002;SDS011;1511;51.326;12.344;2023-10-09T08:41:58;7.30;;;6.60;;
3002;SDS011;1511;51.326;12.344;2023-10-09T08:44:26;14.53;;;7.57;;
3002;SDS011;1511;51.326;12.344;2023-10-09T08:46:54;10.80;;;7.17;;
3002;SDS011;1511;51.326;12.344;2023-10-09T08:49:22;11.53;;;7.80;;
3002;SDS011;1511;51.326;12.344;2023-10-09T08:51:51;12.37;;;7.20;;
3002;SDS011;1511;51.326;12.344;2023-10-09T08:54:19;13.97;;;7.87;;
3002;SDS011;1511;51.326;12.344;2023-10-09T08:56:46;16.87;;;7.70;;
3002;SDS011;1511;51.326;12.344;2023-10-09T08:59:15;9.50;;;6.33;;
3002;SDS011;1511;51.326;12.344;2023-10-09T09:01:45;15.50;;;8.27;;
3002;SDS011;1511;51.326;12.344;2023-10-09T09:07:24;12.07;;;7.00;;
3002;SDS011;1511;51.326;12.344;2023-10-09T09:09:54;12.73;;;7.27;;
3002;SDS011;1511;51.326;12.344;2023-10-09T09:12:44;10.97;;;7.63;;
3002;SDS011;1511;51.326;12.344;2023-10-09T09:15:14;9.53;;;7.73;;
3002;SDS011;1511;51.326;12.344;2023-10-09T09:17:44;8.20;;;7.20;;
3002;SDS011;1511;51.326;12.344;2023-10-09T09:20:21;9.43;;;7.00;;
3002;SDS011;1511;51.326;12.344;2023-10-09T09:22:59;10.20;;;7.07;;
3002;SDS011;1511;51.326;12.344;2023-10-09T09:25:42;20.57;;;8.93;;
3002;SDS011;1511;51.326;12.344;2023-10-09T09:28:13;10.60;;;6.13;;
3002;SDS011;1511;51.326;12.344;2023-10-09T09:30:47;10.00;;;7.40;;
3002;SDS011;1511;51.326;12.344;2023-10-09T09:33:18;9.17;;;7.10;;
3002;SDS011;1511;51.326;12.344;2023-10-09T09:36:04;15.43;;;8.73;;
3002;SDS011;1511;51.326;12.344;2023-10-09T09:38:37;9.83;;;7.03;;
3002;SDS011;1511;51.326;12.344;2023-10-09T09:41:15;10.47;;;6.03;;
3002;SDS011;1511;51.326;12.344;2023-10-09T09:43:51;7.57;;;6.47;;
3002;SDS011;1511;51.326;12.344;2023-10-09T09:46:31;11.63;;;7.30;;
3002;SDS011;1511;51.326;12.344;2023-10-09T09:49:02;11.83;;;7.87;;
3002;SDS011;1511;51.326;12.344;2023-10-09T09:51:48;10.30;;;7.30;;
3002;SDS011;1511;51.326;12.344;2023-10-09T09:54:16;10.30;;;6.50;;
3002;SDS011;1511;51.326;12.344;2023-10-09T09:56:46;9.87;;;7.03;;
3002;SDS011;1511;51.326;12.344;2023-10-09T09:59:17;14.80;;;8.27;;
3002;SDS011;1511;51.326;12.344;2023-10-09T10:01:47;13.53;;;8.17;;
3002;SDS011;1511;51.326;12.344;2023-10-09T10:04:22;12.20;;;7.87;;
3002;SDS011;1511;51.326;12.344;2023-10-09T10:06:54;14.30;;;7.40;;
3002;SDS011;1511;51.326;12.344;2023-10-09T10:09:34;12.60;;;8.50;;
3002;SDS011;1511;51.326;12.344;2023-10-09T10:12:05;13.17;;;8.13;;
3002;SDS011;1511;51.326;12.344;2023-10-09T10:14:52;11.63;;;8.00;;
3002;SDS011;1511;51.326;12.344;2023-10-09T10:18:06;9.03;;;7.90;;
3002;SDS011;1511;51.326;12.344;2023-10-09T10:20:27;11.27;;;7.03;;
3002;SDS011;1511;51.326;12.344;2023-10-09T10:25:51;11.07;;;8.10;;
3002;SDS011;1511;51.326;12.344;2023-10-09T10:28:25;8.77;;;7.17;;
3002;SDS011;1511;51.326;12.344;2023-10-09T10:31:01;13.77;;;7.53;;
3002;SDS011;1511;51.326;12.344;2023-10-09T10:36:24;8.47;;;7.70;;
3002;SDS011;1511;51.326;12.344;2023-10-09T10:41:32;11.30;;;7.00;;
3002;SDS011;1511;51.326;12.344;2023-10-09T10:44:04;10.40;;;7.00;;
3002;SDS011;1511;51.326;12.344;2023-10-09T10:46:48;6.80;;;6.00;;
3002;SDS011;1511;51.326;12.344;2023-10-09T10:49:19;8.67;;;6.90;;
3002;SDS011;1511;51.326;12.344;2023-10-09T10:52:01;7.80;;;6.97;;
3002;SDS011;1511;51.326;12.344;2023-10-09T10:54:44;9.97;;;7.43;;
3002;SDS011;1511;51.326;12.344;2023-10-09T10:57:17;8.30;;;6.27;;
3002;SDS011;1511;51.326;12.344;2023-10-09T11:00:09;10.87;;;7.67;;
3002;SDS011;1511;51.326;12.344;2023-10-09T11:02:59;8.37;;;7.07;;
3002;SDS011;1511;51.326;12.344;2023-10-09T11:05:42;9.20;;;6.77;;
3002;SDS011;1511;51.326;12.344;2023-10-09T11:08:15;6.80;;;6.13;;
3002;SDS011;1511;51.326;12.344;2023-10-09T11:10:48;12.93;;;7.30;;
3002;SDS011;1511;51.326;12.344;2023-10-09T11:13:22;9.33;;;6.77;;
3002;SDS011;1511;51.326;12.344;2023-10-09T11:15:58;10.30;;;7.10;;
3002;SDS011;1511;51.326;12.344;2023-10-09T11:19:02;10.93;;;6.70;;
3002;SDS011;1511;51.326;12.344;2023-10-09T11:21:47;12.13;;;7.07;;
3002;SDS011;1511;51.326;12.344;2023-10-09T11:24:24;6.77;;;6.07;;
3002;SDS011;1511;51.326;12.344;2023-10-09T11:27:00;11.07;;;7.77;;
3002;SDS011;1511;51.326;12.344;2023-10-09T11:29:31;10.87;;;7.00;;
3002;SDS011;1511;51.326;12.344;2023-10-09T11:32:19;8.60;;;6.97;;
3002;SDS011;1511;51.326;12.344;2023-10-09T11:35:09;8.60;;;7.53;;
3002;SDS011;1511;51.326;12.344;2023-10-09T11:37:44;12.80;;;7.07;;
3002;SDS011;1511;51.326;12.344;2023-10-09T11:40:29;15.20;;;8.07;;
3002;SDS011;1511;51.326;12.344;2023-10-09T11:43:18;11.17;;;7.13;;
3002;SDS011;1511;51.326;12.344;2023-10-09T11:46:11;7.40;;;6.63;;
3002;SDS011;1511;51.326;12.344;2023-10-09T11:49:06;8.60;;;6.57;;
3002;SDS011;1511;51.326;12.344;2023-10-09T11:51:46;8.13;;;6.50;;
3002;SDS011;1511;51.326;12.344;2023-10-09T11:54:36;10.30;;;6.20;;
3002;SDS011;1511;51.326;12.344;2023-10-09T11:57:02;10.27;;;7.03;;
3002;SDS011;1511;51.326;12.344;2023-10-09T11:59:29;11.70;;;7.17;;
3002;SDS011;1511;51.326;12.344;2023-10-09T12:02:09;11.30;;;7.67;;
3002;SDS011;1511;51.326;12.344;2023-10-09T12:04:41;9.93;;;7.50;;
3002;SDS011;1511;51.326;12.344;2023-10-09T12:07:10;11.03;;;8.73;;
3002;SDS011;1511;51.326;12.344;2023-10-09T12:09:36;8.93;;;6.53;;
3002;SDS011;1511;51.326;12.344;2023-10-09T12:12:05;10.87;;;7.33;;
3002;SDS011;1511;51.326;12.344;2023-10-09T12:14:36;8.30;;;6.80;;
3002;SDS011;1511;51.326;12.344;2023-10-09T12:17:04;9.60;;;7.97;;
3002;SDS011;1511;51.326;12.344;2023-10-09T12:19:32;10.70;;;7.83;;
3002;SDS011;1511;51.326;12.344;2023-10-09T12:22:06;12.53;;;7.93;;
3002;SDS011;1511;51.326;12.344;2023-10-09T12:24:41;7.60;;;6.63;;
3002;SDS011;1511;51.326;12.344;2023-10-09T12:27:14;8.10;;;7.10;;
3002;SDS011;1511;51.326;12.344;2023-10-09T12:29:47;8.60;;;7.50;;
3002;SDS011;1511;51.326;12.344;2023-10-09T12:32:16;11.00;;;7.47;;
3002;SDS011;1511;51.326;12.344;2023-10-09T12:34:47;8.43;;;7.50;;
3002;SDS011;1511;51.326;12.344;2023-10-09T12:37:15;8.90;;;7.33;;
3002;SDS011;1511;51.326;12.344;2023-10-09T12:39:42;9.40;;;7.30;;
3002;SDS011;1511;51.326;12.344;2023-10-09T12:42:08;11.30;;;8.90;;
3002;SDS011;1511;51.326;12.344;2023-10-09T12:44:41;8.43;;;6.83;;
3002;SDS011;1511;51.326;12.344;2023-10-09T12:47:08;10.83;;;6.63;;
3002;SDS011;1511;51.326;12.344;2023-10-09T12:49:36;7.50;;;6.53;;
3002;SDS011;1511;51.326;12.344;2023-10-09T12:52:06;10.33;;;6.10;;
3002;SDS011;1511;51.326;12.344;2023-10-09T12:54:42;7.27;;;5.70;;
3002;SDS011;1511;51.326;12.344;2023-10-09T12:57:13;8.43;;;6.40;;
3002;SDS011;1511;51.326;12.344;2023-10-09T12:59:41;13.43;;;7.30;;
3002;SDS011;1511;51.326;12.344;2023-10-09T13:02:13;10.90;;;6.43;;
3002;SDS011;1511;51.326;12.344;2023-10-09T13:04:55;12.97;;;8.80;;
3002;SDS011;1511;51.326;12.344;2023-10-09T13:07:22;8.53;;;6.63;;
3002;SDS011;1511;51.326;12.344;2023-10-09T13:09:48;10.83;;;7.30;;
3002;SDS011;1511;51.326;12.344;2023-10-09T13:12:33;8.80;;;7.17;;
3002;SDS011;1511;51.326;12.344;2023-10-09T13:14:59;9.33;;;7.03;;
3002;SDS011;1511;51.326;12.344;2023-10-09T13:17:25;9.90;;;7.00;;
3002;SDS011;1511;51.326;12.344;2023-10-09T13:19:53;9.80;;;7.30;;
3002;SDS011;1511;51.326;12.344;2023-10-09T13:22:21;8.20;;;6.47;;
3002;SDS011;1511;51.326;12.344;2023-10-09T13:24:48;11.60;;;6.90;;
3002;SDS011;1511;51.326;12.344;2023-10-09T13:27:14;11.50;;;7.97;;
3002;SDS011;1511;51.326;12.344;2023-10-09T13:29:48;10.70;;;7.77;;
3002;SDS011;1511;51.326;12.344;2023-10-09T13:32:14;8.10;;;6.87;;
3002;SDS011;1511;51.326;12.344;2023-10-09T13:34:45;8.93;;;7.40;;
3002;SDS011;1511;51.326;12.344;2023-10-09T13:37:16;8.87;;;7.50;;
3002;SDS011;1511;51.326;12.344;2023-10-09T13:39:46;10.43;;;7.10;;
3002;SDS011;1511;51.326;12.344;2023-10-09T13:42:22;14.53;;;7.40;;
3002;SDS011;1511;51.326;12.344;2023-10-09T13:44:51;8.67;;;7.63;;
3002;SDS011;1511;51.326;12.344;2023-10-09T13:47:20;8.80;;;7.40;;
3002;SDS011;1511;51.326;12.344;2023-10-09T13:49:54;17.10;;;8.80;;
3002;SDS011;1511;51.326;12.344;2023-10-09T13:52:21;9.77;;;7.50;;
3002;SDS011;1511;51.326;12.344;2023-10-09T13:54:47;11.53;;;8.00;;
3002;SDS011;1511;51.326;12.344;2023-10-09T13:57:14;12.40;;;8.17;;
3002;SDS011;1511;51.326;12.344;2023-10-09T13:59:41;12.20;;;7.47;;
3002;SDS011;1511;51.326;12.344;2023-10-09T14:02:17;11.13;;;7.40;;
3002;SDS011;1511;51.326;12.344;2023-10-09T14:04:44;11.60;;;7.73;;
3002;SDS011;1511;51.326;12.344;2023-10-09T14:07:13;8.77;;;7.50;;
3002;SDS011;1511;51.326;12.344;2023-10-09T14:09:44;9.70;;;8.40;;
3002;SDS011;1511;51.326;12.344;2023-10-09T14:12:23;9.57;;;7.67;;
3002;SDS011;1511;51.326;12.344;2023-10-09T14:14:50;7.57;;;6.07;;
3002;SDS011;1511;51.326;12.344;2023-10-09T14:17:19;9.90;;;7.77;;
3002;SDS011;1511;51.326;12.344;2023-10-09T14:19:54;7.70;;;6.53;;
3002;SDS011;1511;51.326;12.344;2023-10-09T14:22:41;7.97;;;5.97;;
3002;SDS011;1511;51.326;12.344;2023-10-09T14:25:07;12.40;;;8.30;;
3002;SDS011;1511;51.326;12.344;2023-10-09T14:27:42;10.83;;;8.50;;
3002;SDS011;1511;51.326;12.344;2023-10-09T14:30:13;9.80;;;7.17;;
3002;SDS011;1511;51.326;12.344;2023-10-09T14:32:47;9.70;;;7.73;;
3002;SDS011;1511;51.326;12.344;2023-10-09T14:35:20;8.80;;;6.30;;
3002;SDS011;1511;51.326;12.344;2023-10-09T14:37:46;7.03;;;6.23;;
3002;SDS011;1511;51.326;12.344;2023-10-09T14:40:12;8.77;;;5.80;;
3002;SDS011;1511;51.326;12.344;2023-10-09T14:42:45;11.03;;;7.30;;
3002;SDS011;1511;51.326;12.344;2023-10-09T14:45:17;9.77;;;7.00;;
3002;SDS011;1511;51.326;12.344;2023-10-09T14:47:43;11.20;;;7.63;;
3002;SDS011;1511;51.326;12.344;2023-10-09T14:50:11;10.50;;;7.63;;
3002;SDS011;1511;51.326;12.344;2023-10-09T14:52:38;7.50;;;6.30;;
3002;SDS011;1511;51.326;12.344;2023-10-09T14:55:05;6.70;;;5.60;;
3002;SDS011;1511;51.326;12.344;2023-10-09T14:57:35;9.67;;;7.63;;
3002;SDS011;1511;51.326;12.344;2023-10-09T15:00:02;9.50;;;7.03;;
3002;SDS011;1511;51.326;12.344;2023-10-09T15:02:34;8.97;;;7.23;;
3002;SDS011;1511;51.326;12.344;2023-10-09T15:05:00;9.10;;;6.67;;
3002;SDS011;1511;51.326;12.344;2023-10-09T15:07:29;12.00;;;7.73;;
3002;SDS011;1511;51.326;12.344;2023-10-09T15:09:55;10.53;;;7.87;;
3002;SDS011;1511;51.326;12.344;2023-10-09T15:12:28;8.83;;;7.00;;
3002;SDS011;1511;51.326;12.344;2023-10-09T15:14:54;7.73;;;7.03;;
3002;SDS011;1511;51.326;12.344;2023-10-09T15:17:21;8.00;;;7.03;;
3002;SDS011;1511;51.326;12.344;2023-10-09T15:19:52;6.73;;;6.07;;
3002;SDS011;1511;51.326;12.344;2023-10-09T15:22:21;9.90;;;7.53;;
3002;SDS011;1511;51.326;12.344;2023-10-09T15:24:47;10.73;;;8.43;;
3002;SDS011;1511;51.326;12.344;2023-10-09T15:27:15;10.10;;;9.10;;
3002;SDS011;1511;51.326;12.344;2023-10-09T15:29:43;8.20;;;6.30;;
3002;SDS011;1511;51.326;12.344;2023-10-09T15:32:10;11.30;;;8.57;;
3002;SDS011;1511;51.326;12.344;2023-10-09T15:34:47;10.10;;;7.80;;
3002;SDS011;1511;51.326;12.344;2023-10-09T15:37:13;7.00;;;6.30;;
3002;SDS011;1511;51.326;12.344;2023-10-09T15:39:39;7.53;;;6.80;;
3002;SDS011;1511;51.326;12.344;2023-10-09T15:42:05;11.10;;;6.87;;
3002;SDS011;1511;51.326;12.344;2023-10-09T15:44:34;9.23;;;7.10;;
3002;SDS011;1511;51.326;12.344;2023-10-09T15:47:03;7.77;;;5.60;;
3002;SDS011;1511;51.326;12.344;2023-10-09T15:49:33;7.83;;;6.60;;
3002;SDS011;1511;51.326;12.344;2023-10-09T15:52:03;11.70;;;8.10;;
3002;SDS011;1511;51.326;12.344;2023-10-09T15:54:32;8.37;;;7.57;;
3002;SDS011;1511;51.326;12.344;2023-10-09T15:56:58;7.73;;;6.93;;
3002;SDS011;1511;51.326;12.344;2023-10-09T15:59:24;9.50;;;7.20;;
3002;SDS011;1511;51.326;12.344;2023-10-09T16:01:50;7.90;;;7.20;;
3002;SDS011;1511;51.326;12.344;2023-10-09T16:04:16;7.00;;;6.30;;
3002;SDS011;1511;51.326;12.344;2023-10-09T16:06:45;11.77;;;8.67;;